sensor_id;sensor_type;location;lat;lon;timestamp;P1;durP1;ratioP1;P2;durP2;ratioP2
84270;SDS011;74614;50.032;19.566;2024-02-28T00:01:23;0;;;0;;
84270;SDS011;74614;50.032;19.566;2024-02-28T00:03:28;0;;;0;;
84270;SDS011;74614;50.032;19.566;2024-02-28T00:05:25;0;;;0;;
84270;SDS011;74614;50.032;19.566;2024-02-28T00:07:27;0;;;0;;
84270;SDS011;74614;50.032;19.566;2024-02-28T00:09:25;0;;;0;;
84270;SDS011;74614;50.032;19.566;2024-02-28T00:11:34;0;;;0;;
84270;SDS011;74614;50.032;19.566;2024-02-28T00:14:24;0;;;0;;
84270;SDS011;74614;50.032;19.566;2024-02-28T00:16:23;0;;;0;;
84270;SDS011;74614;50.032;19.566;2024-02-28T00:18:26;0;;;0;;
84270;SDS011;74614;50.032;19.566;2024-02-28T00:20:27;0;;;0;;
84270;SDS011;74614;50.032;19.566;2024-02-28T00:22:23;0;;;0;;
84270;SDS011;74614;50.032;19.566;2024-02-28T00:24:27;0;;;0;;
84270;SDS011;74614;50.032;19.566;2024-02-28T00:26:29;0;;;0;;
84270;SDS011;74614;50.032;19.566;2024-02-28T00:28:27;0;;;0;;
84270;SDS011;74614;50.032;19.566;2024-02-28T00:30:25;0;;;0;;
84270;SDS011;74614;50.032;19.566;2024-02-28T00:32:25;0;;;0;;
84270;SDS011;74614;50.032;19.566;2024-02-28T00:34:23;0;;;0;;
84270;SDS011;74614;50.032;19.566;2024-02-28T00:36:28;0;;;0;;
84270;SDS011;74614;50.032;19.566;2024-02-28T00:38:29;0;;;0;;
84270;SDS011;74614;50.032;19.566;2024-02-28T00:40:30;0;;;0;;
84270;SDS011;74614;50.032;19.566;2024-02-28T00:42:23;0;;;0;;
84270;SDS011;74614;50.032;19.566;2024-02-28T00:44:25;0;;;0;;
84270;SDS011;74614;50.032;19.566;2024-02-28T00:46:24;0;;;0;;
84270;SDS011;74614;50.032;19.566;2024-02-28T00:48:24;0;;;0;;
84270;SDS011;74614;50.032;19.566;2024-02-28T00:50:24;0;;;0;;
84270;SDS011;74614;50.032;19.566;2024-02-28T00:52:28;0;;;0;;
84270;SDS011;74614;50.032;19.566;2024-02-28T00:54:30;0;;;0;;
84270;SDS011;74614;50.032;19.566;2024-02-28T00:56:24;0;;;0;;
84270;SDS011;74614;50.032;19.566;2024-02-28T00:58:25;0;;;0;;
84270;SDS011;74614;50.032;19.566;2024-02-28T01:00:28;0;;;0;;
84270;SDS011;74614;50.032;19.566;2024-02-28T01:02:26;0;;;0;;
84270;SDS011;74614;50.032;19.566;2024-02-28T01:04:25;0;;;0;;
84270;SDS011;74614;50.032;19.566;2024-02-28T01:06:26;0;;;0;;
84270;SDS011;74614;50.032;19.566;2024-02-28T01:08:24;0;;;0;;
84270;SDS011;74614;50.032;19.566;2024-02-28T01:10:28;0;;;0;;
84270;SDS011;74614;50.032;19.566;2024-02-28T01:12:28;0;;;0;;
84270;SDS011;74614;50.032;19.566;2024-02-28T01:14:24;0;;;0;;
84270;SDS011;74614;50.032;19.566;2024-02-28T01:16:23;0;;;0;;
84270;SDS011;74614;50.032;19.566;2024-02-28T01:18:25;0;;;0;;
84270;SDS011;74614;50.032;19.566;2024-02-28T01:20:23;0;;;0;;
84270;SDS011;74614;50.032;19.566;2024-02-28T01:22:29;0;;;0;;
84270;SDS011;74614;50.032;19.566;2024-02-28T01:24:23;0;;;0;;
84270;SDS011;74614;50.032;19.566;2024-02-28T01:26:30;0;;;0;;
84270;SDS011;74614;50.032;19.566;2024-02-28T01:28:24;0;;;0;;
84270;SDS011;74614;50.032;19.566;2024-02-28T01:30:23;0;;;0;;
84270;SDS011;74614;50.032;19.566;2024-02-28T01:32:24;0;;;0;;
84270;SDS011;74614;50.032;19.566;2024-02-28T01:34:24;0;;;0;;
84270;SDS011;74614;50.032;19.566;2024-02-28T01:36:27;0;;;0;;
84270;SDS011;74614;50.032;19.566;2024-02-28T01:38:26;0;;;0;;
84270;SDS011;74614;50.032;19.566;2024-02-28T01:40:24;0;;;0;;
84270;SDS011;74614;50.032;19.566;2024-02-28T01:42:26;0;;;0;;
84270;SDS011;74614;50.032;19.566;2024-02-28T01:44:23;0;;;0;;
84270;SDS011;74614;50.032;19.566;2024-02-28T01:46:25;0;;;0;;
84270;SDS011;74614;50.032;19.566;2024-02-28T01:48:27;0;;;0;;
84270;SDS011;74614;50.032;19.566;2024-02-28T01:50:24;0;;;0;;
84270;SDS011;74614;50.032;19.566;2024-02-28T01:52:18;0;;;0;;
84270;SDS011;74614;50.032;19.566;2024-02-28T01:52:20;0;;;0;;
84270;SDS011;74614;50.032;19.566;2024-02-28T01:54:24;0;;;0;;
84270;SDS011;74614;50.032;19.566;2024-02-28T01:56:29;0;;;0;;
84270;SDS011;74614;50.032;19.566;2024-02-28T01:58:33;0;;;0;;
84270;SDS011;74614;50.032;19.566;2024-02-28T02:00:27;0;;;0;;
84270;SDS011;74614;50.032;19.566;2024-02-28T02:02:28;0;;;0;;
84270;SDS011;74614;50.032;19.566;2024-02-28T02:04:31;0;;;0;;
84270;SDS011;74614;50.032;19.566;2024-02-28T02:06:25;0;;;0;;
84270;SDS011;74614;50.032;19.566;2024-02-28T02:08:29;0;;;0;;
84270;SDS011;74614;50.032;19.566;2024-02-28T02:10:24;0;;;0;;
84270;SDS011;74614;50.032;19.566;2024-02-28T02:12:30;0;;;0;;
84270;SDS011;74614;50.032;19.566;2024-02-28T02:14:25;0;;;0;;
84270;SDS011;74614;50.032;19.566;2024-02-28T02:16:31;0;;;0;;
84270;SDS011;74614;50.032;19.566;2024-02-28T02:18:23;0;;;0;;
84270;SDS011;74614;50.032;19.566;2024-02-28T02:20:29;0;;;0;;
84270;SDS011;74614;50.032;19.566;2024-02-28T02:22:24;0;;;0;;
84270;SDS011;74614;50.032;19.566;2024-02-28T02:24:33;0;;;0;;
84270;SDS011;74614;50.032;19.566;2024-02-28T02:26:25;0;;;0;;
84270;SDS011;74614;50.032;19.566;2024-02-28T02:28:27;0;;;0;;
84270;SDS011;74614;50.032;19.566;2024-02-28T02:30:29;0;;;0;;
84270;SDS011;74614;50.032;19.566;2024-02-28T02:32:29;0;;;0;;
84270;SDS011;74614;50.032;19.566;2024-02-28T02:34:24;0;;;0;;
84270;SDS011;74614;50.032;19.566;2024-02-28T02:36:31;0;;;0;;
84270;SDS011;74614;50.032;19.566;2024-02-28T02:38:27;0;;;0;;
84270;SDS011;74614;50.032;19.566;2024-02-28T02:40:39;0;;;0;;
84270;SDS011;74614;50.032;19.566;2024-02-28T02:42:28;0;;;0;;
84270;SDS011;74614;50.032;19.566;2024-02-28T02:44:32;0;;;0;;
84270;SDS011;74614;50.032;19.566;2024-02-28T02:46:23;0;;;0;;
84270;SDS011;74614;50.032;19.566;2024-02-28T02:48:28;0;;;0;;
84270;SDS011;74614;50.032;19.566;2024-02-28T02:50:23;0;;;0;;
84270;SDS011;74614;50.032;19.566;2024-02-28T02:52:27;0;;;0;;
84270;SDS011;74614;50.032;19.566;2024-02-28T02:54:26;0;;;0;;
84270;SDS011;74614;50.032;19.566;2024-02-28T02:56:30;0;;;0;;
84270;SDS011;74614;50.032;19.566;2024-02-28T02:58:25;0;;;0;;
84270;SDS011;74614;50.032;19.566;2024-02-28T03:00:29;0;;;0;;
84270;SDS011;74614;50.032;19.566;2024-02-28T03:02:26;0;;;0;;
84270;SDS011;74614;50.032;19.566;2024-02-28T03:04:30;0;;;0;;
84270;SDS011;74614;50.032;19.566;2024-02-28T03:06:24;0;;;0;;
84270;SDS011;74614;50.032;19.566;2024-02-28T03:08:28;0;;;0;;
84270;SDS011;74614;50.032;19.566;2024-02-28T03:10:24;0;;;0;;
84270;SDS011;74614;50.032;19.566;2024-02-28T03:12:29;0;;;0;;
84270;SDS011;74614;50.032;19.566;2024-02-28T03:14:36;0;;;0;;
84270;SDS011;74614;50.032;19.566;2024-02-28T03:16:34;0;;;0;;
84270;SDS011;74614;50.032;19.566;2024-02-28T03:19:26;0;;;0;;
84270;SDS011;74614;50.032;19.566;2024-02-28T03:21:25;0;;;0;;
84270;SDS011;74614;50.032;19.566;2024-02-28T03:23:25;0;;;0;;
84270;SDS011;74614;50.032;19.566;2024-02-28T03:25:26;0;;;0;;
84270;SDS011;74614;50.032;19.566;2024-02-28T03:27:24;0;;;0;;
84270;SDS011;74614;50.032;19.566;2024-02-28T03:29:24;0;;;0;;
84270;SDS011;74614;50.032;19.566;2024-02-28T03:31:45;0;;;0;;
84270;SDS011;74614;50.032;19.566;2024-02-28T03:34:24;0;;;0;;
84270;SDS011;74614;50.032;19.566;2024-02-28T03:36:30;0;;;0;;
84270;SDS011;74614;50.032;19.566;2024-02-28T03:38:31;0;;;0;;
84270;SDS011;74614;50.032;19.566;2024-02-28T03:40:39;0;;;0;;
84270;SDS011;74614;50.032;19.566;2024-02-28T03:43:24;0;;;0;;
84270;SDS011;74614;50.032;19.566;2024-02-28T03:45:28;0;;;0;;
84270;SDS011;74614;50.032;19.566;2024-02-28T03:47:24;0;;;0;;
84270;SDS011;74614;50.032;19.566;2024-02-28T03:49:23;0;;;0;;
84270;SDS011;74614;50.032;19.566;2024-02-28T03:51:27;0;;;0;;
84270;SDS011;74614;50.032;19.566;2024-02-28T03:53:25;0;;;0;;
84270;SDS011;74614;50.032;19.566;2024-02-28T03:55:24;0;;;0;;
84270;SDS011;74614;50.032;19.566;2024-02-28T03:57:22;0;;;0;;
84270;SDS011;74614;50.032;19.566;2024-02-28T03:59:24;0;;;0;;
84270;SDS011;74614;50.032;19.566;2024-02-28T04:01:25;0;;;0;;
84270;SDS011;74614;50.032;19.566;2024-02-28T04:03:28;0;;;0;;
84270;SDS011;74614;50.032;19.566;2024-02-28T04:05:25;0;;;0;;
84270;SDS011;74614;50.032;19.566;2024-02-28T04:07:22;0;;;0;;
84270;SDS011;74614;50.032;19.566;2024-02-28T04:09:24;0;;;0;;
84270;SDS011;74614;50.032;19.566;2024-02-28T04:11:24;0;;;0;;
84270;SDS011;74614;50.032;19.566;2024-02-28T04:13:24;0;;;0;;
84270;SDS011;74614;50.032;19.566;2024-02-28T04:15:32;0;;;0;;
84270;SDS011;74614;50.032;19.566;2024-02-28T04:17:25;0;;;0;;
84270;SDS011;74614;50.032;19.566;2024-02-28T04:19:23;0;;;0;;
84270;SDS011;74614;50.032;19.566;2024-02-28T04:21:23;0;;;0;;
84270;SDS011;74614;50.032;19.566;2024-02-28T04:23:24;0;;;0;;
84270;SDS011;74614;50.032;19.566;2024-02-28T04:25:25;0;;;0;;
84270;SDS011;74614;50.032;19.566;2024-02-28T04:27:24;0;;;0;;
84270;SDS011;74614;50.032;19.566;2024-02-28T04:30:12;0;;;0;;
84270;SDS011;74614;50.032;19.566;2024-02-28T04:32:35;0;;;0;;
84270;SDS011;74614;50.032;19.566;2024-02-28T04:34:28;0;;;0;;
84270;SDS011;74614;50.032;19.566;2024-02-28T04:36:38;0;;;0;;
84270;SDS011;74614;50.032;19.566;2024-02-28T04:39:24;0;;;0;;
84270;SDS011;74614;50.032;19.566;2024-02-28T04:41:24;0;;;0;;
84270;SDS011;74614;50.032;19.566;2024-02-28T04:43:32;0;;;0;;
84270;SDS011;74614;50.032;19.566;2024-02-28T04:45:31;0;;;0;;
84270;SDS011;74614;50.032;19.566;2024-02-28T04:47:28;0;;;0;;
84270;SDS011;74614;50.032;19.566;2024-02-28T04:49:25;0;;;0;;
84270;SDS011;74614;50.032;19.566;2024-02-28T04:51:26;0;;;0;;
84270;SDS011;74614;50.032;19.566;2024-02-28T04:53:33;0;;;0;;
84270;SDS011;74614;50.032;19.566;2024-02-28T04:55:24;0;;;0;;
84270;SDS011;74614;50.032;19.566;2024-02-28T04:57:24;0;;;0;;
84270;SDS011;74614;50.032;19.566;2024-02-28T04:59:27;0;;;0;;
84270;SDS011;74614;50.032;19.566;2024-02-28T05:01:23;0;;;0;;
84270;SDS011;74614;50.032;19.566;2024-02-28T05:03:29;0;;;0;;
84270;SDS011;74614;50.032;19.566;2024-02-28T05:05:24;0;;;0;;
84270;SDS011;74614;50.032;19.566;2024-02-28T05:07:27;0;;;0;;
84270;SDS011;74614;50.032;19.566;2024-02-28T05:09:23;0;;;0;;
84270;SDS011;74614;50.032;19.566;2024-02-28T05:11:24;0;;;0;;
84270;SDS011;74614;50.032;19.566;2024-02-28T05:13:24;0;;;0;;
84270;SDS011;74614;50.032;19.566;2024-02-28T05:15:24;0;;;0;;
84270;SDS011;74614;50.032;19.566;2024-02-28T05:17:33;0;;;0;;
84270;SDS011;74614;50.032;19.566;2024-02-28T05:19:31;0;;;0;;
84270;SDS011;74614;50.032;19.566;2024-02-28T05:21:24;0;;;0;;
84270;SDS011;74614;50.032;19.566;2024-02-28T05:24:13;0;;;0;;
84270;SDS011;74614;50.032;19.566;2024-02-28T05:27:11;0;;;0;;
84270;SDS011;74614;50.032;19.566;2024-02-28T05:29:30;0;;;0;;
84270;SDS011;74614;50.032;19.566;2024-02-28T05:31:26;0;;;0;;
84270;SDS011;74614;50.032;19.566;2024-02-28T05:33:27;0;;;0;;
84270;SDS011;74614;50.032;19.566;2024-02-28T05:35:23;0;;;0;;
84270;SDS011;74614;50.032;19.566;2024-02-28T05:37:31;0;;;0;;
84270;SDS011;74614;50.032;19.566;2024-02-28T05:39:26;0;;;0;;
84270;SDS011;74614;50.032;19.566;2024-02-28T05:41:27;0;;;0;;
84270;SDS011;74614;50.032;19.566;2024-02-28T05:43:24;0;;;0;;
84270;SDS011;74614;50.032;19.566;2024-02-28T05:45:27;0;;;0;;
84270;SDS011;74614;50.032;19.566;2024-02-28T05:47:23;0;;;0;;
84270;SDS011;74614;50.032;19.566;2024-02-28T05:49:27;0;;;0;;
84270;SDS011;74614;50.032;19.566;2024-02-28T05:51:23;0;;;0;;
84270;SDS011;74614;50.032;19.566;2024-02-28T05:53:30;0;;;0;;
84270;SDS011;74614;50.032;19.566;2024-02-28T05:55:29;0;;;0;;
84270;SDS011;74614;50.032;19.566;2024-02-28T05:57:27;0;;;0;;
84270;SDS011;74614;50.032;19.566;2024-02-28T05:59:22;0;;;0;;
84270;SDS011;74614;50.032;19.566;2024-02-28T06:01:26;33;;;23;;
84270;SDS011;74614;50.032;19.566;2024-02-28T06:03:24;36;;;24;;
84270;SDS011;74614;50.032;19.566;2024-02-28T06:05:27;38;;;25;;
84270;SDS011;74614;50.032;19.566;2024-02-28T06:07:23;35;;;25;;
84270;SDS011;74614;50.032;19.566;2024-02-28T06:09:26;37;;;25;;
84270;SDS011;74614;50.032;19.566;2024-02-28T06:11:23;38;;;27;;
84270;SDS011;74614;50.032;19.566;2024-02-28T06:13:29;35;;;25;;
84270;SDS011;74614;50.032;19.566;2024-02-28T06:15:24;33;;;23;;
84270;SDS011;74614;50.032;19.566;2024-02-28T06:17:28;33;;;22;;
84270;SDS011;74614;50.032;19.566;2024-02-28T06:19:22;37;;;25;;
84270;SDS011;74614;50.032;19.566;2024-02-28T06:21:28;36;;;26;;
84270;SDS011;74614;50.032;19.566;2024-02-28T06:23:24;36;;;26;;
84270;SDS011;74614;50.032;19.566;2024-02-28T06:25:30;46;;;31;;
84270;SDS011;74614;50.032;19.566;2024-02-28T06:27:25;39;;;28;;
84270;SDS011;74614;50.032;19.566;2024-02-28T06:29:27;45;;;30;;
84270;SDS011;74614;50.032;19.566;2024-02-28T06:31:24;53;;;37;;
84270;SDS011;74614;50.032;19.566;2024-02-28T06:33:27;55;;;36;;
84270;SDS011;74614;50.032;19.566;2024-02-28T06:35:23;48;;;34;;
84270;SDS011;74614;50.032;19.566;2024-02-28T06:37:32;43;;;29;;
84270;SDS011;74614;50.032;19.566;2024-02-28T06:39:27;42;;;30;;
84270;SDS011;74614;50.032;19.566;2024-02-28T06:41:27;41;;;26;;
84270;SDS011;74614;50.032;19.566;2024-02-28T06:43:23;36;;;27;;
84270;SDS011;74614;50.032;19.566;2024-02-28T06:45:25;38;;;27;;
84270;SDS011;74614;50.032;19.566;2024-02-28T06:47:26;37;;;26;;
84270;SDS011;74614;50.032;19.566;2024-02-28T06:49:27;35;;;26;;
84270;SDS011;74614;50.032;19.566;2024-02-28T06:51:25;36;;;26;;
84270;SDS011;74614;50.032;19.566;2024-02-28T06:53:29;41;;;28;;
84270;SDS011;74614;50.032;19.566;2024-02-28T06:55:22;40;;;30;;
84270;SDS011;74614;50.032;19.566;2024-02-28T06:57:29;40;;;29;;
84270;SDS011;74614;50.032;19.566;2024-02-28T06:59:25;40;;;28;;
84270;SDS011;74614;50.032;19.566;2024-02-28T07:01:27;46;;;30;;
84270;SDS011;74614;50.032;19.566;2024-02-28T07:03:23;46;;;32;;
84270;SDS011;74614;50.032;19.566;2024-02-28T07:05:28;41;;;29;;
84270;SDS011;74614;50.032;19.566;2024-02-28T07:07:24;41;;;28;;
84270;SDS011;74614;50.032;19.566;2024-02-28T07:09:33;40;;;28;;
84270;SDS011;74614;50.032;19.566;2024-02-28T07:12:25;42;;;29;;
84270;SDS011;74614;50.032;19.566;2024-02-28T07:14:22;41;;;28;;
84270;SDS011;74614;50.032;19.566;2024-02-28T07:16:26;41;;;28;;
84270;SDS011;74614;50.032;19.566;2024-02-28T07:18:24;43;;;28;;
84270;SDS011;74614;50.032;19.566;2024-02-28T07:20:29;41;;;27;;
84270;SDS011;74614;50.032;19.566;2024-02-28T07:22:25;39;;;27;;
84270;SDS011;74614;50.032;19.566;2024-02-28T07:24:23;42;;;28;;
84270;SDS011;74614;50.032;19.566;2024-02-28T07:26:27;40;;;28;;
84270;SDS011;74614;50.032;19.566;2024-02-28T07:28:23;40;;;26;;
84270;SDS011;74614;50.032;19.566;2024-02-28T07:30:22;39;;;28;;
84270;SDS011;74614;50.032;19.566;2024-02-28T07:32:25;38;;;27;;
84270;SDS011;74614;50.032;19.566;2024-02-28T07:34:24;39;;;27;;
84270;SDS011;74614;50.032;19.566;2024-02-28T07:36:23;42;;;28;;
84270;SDS011;74614;50.032;19.566;2024-02-28T07:38:25;41;;;29;;
84270;SDS011;74614;50.032;19.566;2024-02-28T07:40:25;39;;;27;;
84270;SDS011;74614;50.032;19.566;2024-02-28T07:42:31;39;;;27;;
84270;SDS011;74614;50.032;19.566;2024-02-28T07:44:23;36;;;27;;
84270;SDS011;74614;50.032;19.566;2024-02-28T07:46:23;39;;;28;;
84270;SDS011;74614;50.032;19.566;2024-02-28T07:48:24;38;;;26;;
84270;SDS011;74614;50.032;19.566;2024-02-28T07:50:24;37;;;27;;
84270;SDS011;74614;50.032;19.566;2024-02-28T07:52:32;35;;;25;;
84270;SDS011;74614;50.032;19.566;2024-02-28T07:54:26;39;;;27;;
84270;SDS011;74614;50.032;19.566;2024-02-28T07:56:29;39;;;26;;
84270;SDS011;74614;50.032;19.566;2024-02-28T07:58:25;36;;;26;;
84270;SDS011;74614;50.032;19.566;2024-02-28T08:00:26;38;;;27;;
84270;SDS011;74614;50.032;19.566;2024-02-28T08:02:32;38;;;27;;
84270;SDS011;74614;50.032;19.566;2024-02-28T08:04:25;38;;;27;;
84270;SDS011;74614;50.032;19.566;2024-02-28T08:06:26;38;;;26;;
84270;SDS011;74614;50.032;19.566;2024-02-28T08:08:29;37;;;27;;
84270;SDS011;74614;50.032;19.566;2024-02-28T08:10:25;39;;;26;;
84270;SDS011;74614;50.032;19.566;2024-02-28T08:12:31;37;;;28;;
84270;SDS011;74614;50.032;19.566;2024-02-28T08:14:29;37;;;28;;
84270;SDS011;74614;50.032;19.566;2024-02-28T08:16:24;37;;;26;;
84270;SDS011;74614;50.032;19.566;2024-02-28T08:18:22;40;;;29;;
84270;SDS011;74614;50.032;19.566;2024-02-28T08:20:23;42;;;29;;
84270;SDS011;74614;50.032;19.566;2024-02-28T08:22:25;41;;;29;;
84270;SDS011;74614;50.032;19.566;2024-02-28T08:24:23;42;;;31;;
84270;SDS011;74614;50.032;19.566;2024-02-28T08:26:23;49;;;33;;
84270;SDS011;74614;50.032;19.566;2024-02-28T08:28:25;45;;;31;;
84270;SDS011;74614;50.032;19.566;2024-02-28T08:30:27;48;;;33;;
84270;SDS011;74614;50.032;19.566;2024-02-28T08:32:25;50;;;35;;
84270;SDS011;74614;50.032;19.566;2024-02-28T08:34:25;46;;;32;;
84270;SDS011;74614;50.032;19.566;2024-02-28T08:36:24;46;;;32;;
84270;SDS011;74614;50.032;19.566;2024-02-28T08:38:24;46;;;32;;
84270;SDS011;74614;50.032;19.566;2024-02-28T08:40:25;46;;;32;;
84270;SDS011;74614;50.032;19.566;2024-02-28T08:42:24;46;;;32;;
84270;SDS011;74614;50.032;19.566;2024-02-28T08:44:27;49;;;34;;
84270;SDS011;74614;50.032;19.566;2024-02-28T08:46:27;49;;;34;;
84270;SDS011;74614;50.032;19.566;2024-02-28T08:48:24;49;;;34;;
84270;SDS011;74614;50.032;19.566;2024-02-28T08:50:24;49;;;34;;
84270;SDS011;74614;50.032;19.566;2024-02-28T08:52:33;49;;;34;;
84270;SDS011;74614;50.032;19.566;2024-02-28T08:54:24;47;;;33;;
84270;SDS011;74614;50.032;19.566;2024-02-28T08:56:25;47;;;33;;
84270;SDS011;74614;50.032;19.566;2024-02-28T08:58:23;47;;;33;;
84270;SDS011;74614;50.032;19.566;2024-02-28T09:00:23;47;;;33;;
84270;SDS011;74614;50.032;19.566;2024-02-28T09:02:25;47;;;33;;
84270;SDS011;74614;50.032;19.566;2024-02-28T09:04:24;47;;;33;;
84270;SDS011;74614;50.032;19.566;2024-02-28T09:06:24;47;;;33;;
84270;SDS011;74614;50.032;19.566;2024-02-28T09:08:28;47;;;33;;
84270;SDS011;74614;50.032;19.566;2024-02-28T09:10:29;47;;;33;;
84270;SDS011;74614;50.032;19.566;2024-02-28T09:12:24;47;;;33;;
84270;SDS011;74614;50.032;19.566;2024-02-28T09:14:23;42;;;27;;
84270;SDS011;74614;50.032;19.566;2024-02-28T09:17:29;42;;;27;;
84270;SDS011;74614;50.032;19.566;2024-02-28T09:19:25;42;;;27;;
84270;SDS011;74614;50.032;19.566;2024-02-28T09:21:29;42;;;27;;
84270;SDS011;74614;50.032;19.566;2024-02-28T09:23:25;37;;;26;;
84270;SDS011;74614;50.032;19.566;2024-02-28T09:25:31;37;;;26;;
84270;SDS011;74614;50.032;19.566;2024-02-28T09:27:28;38;;;26;;
84270;SDS011;74614;50.032;19.566;2024-02-28T09:29:28;36;;;26;;
84270;SDS011;74614;50.032;19.566;2024-02-28T09:31:23;36;;;25;;
84270;SDS011;74614;50.032;19.566;2024-02-28T09:33:32;35;;;25;;
84270;SDS011;74614;50.032;19.566;2024-02-28T09:35:25;36;;;25;;
84270;SDS011;74614;50.032;19.566;2024-02-28T09:37:42;36;;;25;;
84270;SDS011;74614;50.032;19.566;2024-02-28T09:40:26;37;;;24;;
84270;SDS011;74614;50.032;19.566;2024-02-28T09:42:28;35;;;24;;
84270;SDS011;74614;50.032;19.566;2024-02-28T09:44:28;38;;;26;;
84270;SDS011;74614;50.032;19.566;2024-02-28T09:46:28;33;;;23;;
84270;SDS011;74614;50.032;19.566;2024-02-28T09:48:27;34;;;24;;
84270;SDS011;74614;50.032;19.566;2024-02-28T09:50:28;34;;;23;;
84270;SDS011;74614;50.032;19.566;2024-02-28T09:52:28;36;;;24;;
84270;SDS011;74614;50.032;19.566;2024-02-28T09:54:27;32;;;24;;
84270;SDS011;74614;50.032;19.566;2024-02-28T09:56:27;35;;;24;;
84270;SDS011;74614;50.032;19.566;2024-02-28T09:58:28;34;;;24;;
84270;SDS011;74614;50.032;19.566;2024-02-28T10:00:26;38;;;25;;
84270;SDS011;74614;50.032;19.566;2024-02-28T10:02:27;35;;;23;;
84270;SDS011;74614;50.032;19.566;2024-02-28T10:04:27;35;;;26;;
84270;SDS011;74614;50.032;19.566;2024-02-28T10:06:28;34;;;23;;
84270;SDS011;74614;50.032;19.566;2024-02-28T10:08:31;36;;;25;;
84270;SDS011;74614;50.032;19.566;2024-02-28T10:10:28;37;;;24;;
84270;SDS011;74614;50.032;19.566;2024-02-28T10:12:27;35;;;24;;
84270;SDS011;74614;50.032;19.566;2024-02-28T10:14:27;35;;;24;;
84270;SDS011;74614;50.032;19.566;2024-02-28T10:16:26;35;;;25;;
84270;SDS011;74614;50.032;19.566;2024-02-28T10:18:28;35;;;22;;
84270;SDS011;74614;50.032;19.566;2024-02-28T10:20:26;35;;;23;;
84270;SDS011;74614;50.032;19.566;2024-02-28T10:22:27;36;;;26;;
84270;SDS011;74614;50.032;19.566;2024-02-28T10:24:26;33;;;24;;
84270;SDS011;74614;50.032;19.566;2024-02-28T10:26:27;36;;;25;;
84270;SDS011;74614;50.032;19.566;2024-02-28T10:28:31;33;;;25;;
84270;SDS011;74614;50.032;19.566;2024-02-28T10:30:38;33;;;26;;
84270;SDS011;74614;50.032;19.566;2024-02-28T10:33:26;37;;;27;;
84270;SDS011;74614;50.032;19.566;2024-02-28T10:36:26;35;;;26;;
84270;SDS011;74614;50.032;19.566;2024-02-28T10:38:27;34;;;24;;
84270;SDS011;74614;50.032;19.566;2024-02-28T10:40:30;36;;;24;;
84270;SDS011;74614;50.032;19.566;2024-02-28T10:42:28;35;;;25;;
84270;SDS011;74614;50.032;19.566;2024-02-28T10:44:27;32;;;23;;
84270;SDS011;74614;50.032;19.566;2024-02-28T10:46:26;34;;;23;;
84270;SDS011;74614;50.032;19.566;2024-02-28T10:48:27;33;;;24;;
84270;SDS011;74614;50.032;19.566;2024-02-28T10:50:29;34;;;24;;
84270;SDS011;74614;50.032;19.566;2024-02-28T10:52:32;33;;;24;;
84270;SDS011;74614;50.032;19.566;2024-02-28T10:54:30;35;;;24;;
84270;SDS011;74614;50.032;19.566;2024-02-28T10:57:27;29;;;23;;
84270;SDS011;74614;50.032;19.566;2024-02-28T11:00:26;32;;;24;;
84270;SDS011;74614;50.032;19.566;2024-02-28T11:02:28;33;;;23;;
84270;SDS011;74614;50.032;19.566;2024-02-28T11:04:27;30;;;21;;
84270;SDS011;74614;50.032;19.566;2024-02-28T11:06:27;31;;;23;;
84270;SDS011;74614;50.032;19.566;2024-02-28T11:08:27;34;;;22;;
84270;SDS011;74614;50.032;19.566;2024-02-28T11:10:30;33;;;23;;
84270;SDS011;74614;50.032;19.566;2024-02-28T11:12:28;31;;;23;;
84270;SDS011;74614;50.032;19.566;2024-02-28T11:14:32;34;;;24;;
84270;SDS011;74614;50.032;19.566;2024-02-28T11:16:27;31;;;23;;
84270;SDS011;74614;50.032;19.566;2024-02-28T11:18:27;32;;;23;;
84270;SDS011;74614;50.032;19.566;2024-02-28T11:20:31;33;;;23;;
84270;SDS011;74614;50.032;19.566;2024-02-28T11:22:30;34;;;25;;
84270;SDS011;74614;50.032;19.566;2024-02-28T11:24:28;34;;;24;;
84270;SDS011;74614;50.032;19.566;2024-02-28T11:26:29;30;;;21;;
84270;SDS011;74614;50.032;19.566;2024-02-28T11:28:35;31;;;23;;
84270;SDS011;74614;50.032;19.566;2024-02-28T11:31:25;32;;;22;;
84270;SDS011;74614;50.032;19.566;2024-02-28T11:33:33;33;;;23;;
84270;SDS011;74614;50.032;19.566;2024-02-28T11:35:28;32;;;23;;
84270;SDS011;74614;50.032;19.566;2024-02-28T11:37:35;33;;;24;;
84270;SDS011;74614;50.032;19.566;2024-02-28T11:40:27;33;;;24;;
84270;SDS011;74614;50.032;19.566;2024-02-28T11:42:28;31;;;22;;
84270;SDS011;74614;50.032;19.566;2024-02-28T11:44:27;33;;;24;;
84270;SDS011;74614;50.032;19.566;2024-02-28T11:46:27;32;;;23;;
84270;SDS011;74614;50.032;19.566;2024-02-28T11:48:28;48;;;36;;
84270;SDS011;74614;50.032;19.566;2024-02-28T11:50:28;46;;;36;;
84270;SDS011;74614;50.032;19.566;2024-02-28T11:52:27;47;;;35;;
84270;SDS011;74614;50.032;19.566;2024-02-28T11:54:27;48;;;35;;
84270;SDS011;74614;50.032;19.566;2024-02-28T11:56:27;47;;;35;;
84270;SDS011;74614;50.032;19.566;2024-02-28T11:58:28;49;;;36;;
84270;SDS011;74614;50.032;19.566;2024-02-28T12:00:28;48;;;34;;
84270;SDS011;74614;50.032;19.566;2024-02-28T12:02:33;45;;;33;;
84270;SDS011;74614;50.032;19.566;2024-02-28T12:04:27;47;;;35;;
84270;SDS011;74614;50.032;19.566;2024-02-28T12:06:33;47;;;34;;
84270;SDS011;74614;50.032;19.566;2024-02-28T12:08:27;50;;;35;;
84270;SDS011;74614;50.032;19.566;2024-02-28T12:10:34;51;;;36;;
84270;SDS011;74614;50.032;19.566;2024-02-28T12:13:25;50;;;34;;
84270;SDS011;74614;50.032;19.566;2024-02-28T12:15:21;47;;;36;;
84270;SDS011;74614;50.032;19.566;2024-02-28T12:17:26;46;;;33;;
84270;SDS011;74614;50.032;19.566;2024-02-28T12:20:27;40;;;29;;
84270;SDS011;74614;50.032;19.566;2024-02-28T12:22:27;40;;;31;;
84270;SDS011;74614;50.032;19.566;2024-02-28T12:24:28;37;;;27;;
84270;SDS011;74614;50.032;19.566;2024-02-28T12:26:26;39;;;29;;
84270;SDS011;74614;50.032;19.566;2024-02-28T12:28:27;45;;;32;;
84270;SDS011;74614;50.032;19.566;2024-02-28T12:30:28;45;;;32;;
84270;SDS011;74614;50.032;19.566;2024-02-28T12:32:29;45;;;32;;
84270;SDS011;74614;50.032;19.566;2024-02-28T12:34:30;45;;;32;;
84270;SDS011;74614;50.032;19.566;2024-02-28T12:36:26;40;;;25;;
84270;SDS011;74614;50.032;19.566;2024-02-28T12:38:31;35;;;24;;
84270;SDS011;74614;50.032;19.566;2024-02-28T12:40:27;34;;;24;;
84270;SDS011;74614;50.032;19.566;2024-02-28T12:42:26;35;;;24;;
84270;SDS011;74614;50.032;19.566;2024-02-28T12:44:28;33;;;22;;
84270;SDS011;74614;50.032;19.566;2024-02-28T12:46:28;35;;;23;;
84270;SDS011;74614;50.032;19.566;2024-02-28T12:48:37;38;;;25;;
84270;SDS011;74614;50.032;19.566;2024-02-28T12:50:34;36;;;26;;
84270;SDS011;74614;50.032;19.566;2024-02-28T12:52:31;35;;;26;;
84270;SDS011;74614;50.032;19.566;2024-02-28T12:54:27;38;;;26;;
84270;SDS011;74614;50.032;19.566;2024-02-28T12:56:28;38;;;27;;
84270;SDS011;74614;50.032;19.566;2024-02-28T12:58:30;37;;;25;;
84270;SDS011;74614;50.032;19.566;2024-02-28T13:00:28;38;;;27;;
84270;SDS011;74614;50.032;19.566;2024-02-28T13:02:28;38;;;27;;
84270;SDS011;74614;50.032;19.566;2024-02-28T13:04:27;39;;;28;;
84270;SDS011;74614;50.032;19.566;2024-02-28T13:06:28;39;;;27;;